Forester — DIUT — position and weather

sailwx.info

Track history (hours):
 
Tides and Currents Weather Stations Pressure Air Temp Water Temp Dewpoint Dewpoint Depression Visibility Wind Speed Wind Dir Waves Ship Positions

Forester

Last reported at 2017-May-17 17:01 UTC. Time now 2017-May-26 09:33 UTC.
Position N 37°34' E 024°02'.
Warning: this ship's position is 8 days out of date.

Length 100 m; draft 4.9 m.

Type: Ship. MMSI: 211233870.

Date/timePositionNaut miles runAvg speedWind from/ knotsBaromVisibWave heightAir tempDewpointWater temp
2017-May-17 17:01N 37°34' E 024°02'0 9.1
2017-May-17 17:00N 37°34' E 024°02'  
2017-May-14 16:18N 37°30' E 024°01'311.1
2017-May-14 16:00N 37°27' E 023°60'611.2
2017-May-14 15:30N 37°22' E 023°56'611.1
2017-May-14 15:00N 37°18' E 023°53'611.1
2017-May-14 14:30N 37°13' E 023°49'2011.1
2017-May-14 12:44N 36°56' E 023°37'311 9.2
2017-May-13 02:55N 39°40' E 018°00'510.1
2017-May-13 02:26N 39°43' E 017°56'5 9.8
2017-May-13 01:57N 39°47' E 017°52'4 9.8
2017-May-13 01:30N 39°50' E 017°48'5 9.7
2017-May-13 01:00N 39°54' E 017°44'6 9.9
2017-May-13 00:26N 39°58' E 017°39'410.1
2017-May-12 23:59N 40°01' E 017°35'510.2
2017-May-12 23:29N 40°05' E 017°30'510.2
2017-May-12 22:59N 40°09' E 017°25'5 9.7
2017-May-12 22:26N 40°12' E 017°21'4 9.2
2017-May-12 21:58N 40°16' E 017°17'4 8.1
2017-May-12 21:30N 40°18' E 017°14'4 7.4
2017-May-12 21:00N 40°21' E 017°10'4 7.2
2017-May-12 20:30N 40°24' E 017°08'3 6.8
2017-May-12 20:00N 40°26' E 017°11'3 4.5
2017-May-12 19:25N 40°29' E 017°13'0 0.0
2017-May-12 19:01N 40°29' E 017°13'0 0.0
2017-May-12 18:16N 40°29' E 017°13'0 0.0
2017-May-12 18:00N 40°29' E 017°13'0 0.0
2017-May-12 17:30N 40°29' E 017°13'0 0.0
2017-May-12 17:00N 40°29' E 017°13'0 0.0
2017-May-12 16:27N 40°29' E 017°13'0 0.0
2017-May-12 15:57N 40°29' E 017°13'0 0.0
2017-May-12 15:30N 40°29' E 017°13'0 0.0
2017-May-12 14:57N 40°29' E 017°13'0 0.0
2017-May-12 14:30N 40°29' E 017°13'0 0.0
2017-May-12 13:30N 40°29' E 017°13'0 0.0
2017-May-12 13:00N 40°29' E 017°13'0 0.0
2017-May-12 12:30N 40°29' E 017°13'0 0.0
2017-May-12 11:57N 40°29' E 017°13'0 0.0
2017-May-12 11:30N 40°29' E 017°13'0 0.0
2017-May-12 11:00N 40°29' E 017°13'0 0.0
2017-May-12 10:27N 40°29' E 017°13'0 0.0
2017-May-12 09:51N 40°29' E 017°13'0 0.0
2017-May-12 09:30N 40°29' E 017°13'0 0.0
2017-May-12 09:00N 40°29' E 017°13'0 0.0
2017-May-12 08:30N 40°29' E 017°13'0 0.0
2017-May-12 08:00N 40°29' E 017°13'0 0.0
2017-May-12 07:27N 40°29' E 017°13'0 0.0
2017-May-12 07:00N 40°29' E 017°13'0 0.0
2017-May-12 06:30N 40°29' E 017°13'0 0.0
2017-May-12 06:00N 40°29' E 017°13'0 0.0
2017-May-12 05:24N 40°29' E 017°13'0 0.0
2017-May-12 04:57N 40°29' E 017°13'0 0.0
2017-May-12 04:30N 40°29' E 017°13'0 0.0
2017-May-12 04:00N 40°29' E 017°13'0 0.0
2017-May-12 03:30N 40°29' E 017°13'0 0.0
2017-May-12 02:57N 40°29' E 017°13'0 0.0
2017-May-12 02:30N 40°29' E 017°13'0 0.0
2017-May-12 02:00N 40°29' E 017°13'0 0.0
2017-May-12 01:27N 40°29' E 017°13'0 0.0
2017-May-12 00:57N 40°29' E 017°13'0 0.0
2017-May-12 00:30N 40°29' E 017°13'0 0.0
2017-May-12 00:00N 40°29' E 017°13'0 0.0
2017-May-11 23:24N 40°29' E 017°13'0 0.0
2017-May-11 23:00N 40°29' E 017°13'0 0.0
2017-May-11 22:27N 40°29' E 017°13'0 0.0
2017-May-11 21:57N 40°29' E 017°13'0 0.0
2017-May-11 21:30N 40°29' E 017°13'0 0.0
2017-May-11 21:00N 40°29' E 017°13'0 0.0
2017-May-11 20:30N 40°29' E 017°13'0 0.0
2017-May-11 19:54N 40°29' E 017°13'0 0.0
2017-May-11 19:30N 40°29' E 017°13'0 0.0
2017-May-11 19:00N 40°29' E 017°13'0 0.0
2017-May-11 18:24N 40°29' E 017°13'0 0.0
2017-May-11 17:57N 40°29' E 017°13'0 0.0
2017-May-11 17:30N 40°29' E 017°13'0 0.0
2017-May-11 17:00N 40°29' E 017°13'0 0.0
2017-May-11 16:27N 40°29' E 017°13'0 0.0
2017-May-11 15:57N 40°29' E 017°13'0 0.0
2017-May-11 15:27N 40°29' E 017°13'0 0.0
2017-May-11 14:57N 40°29' E 017°13'0 0.0
2017-May-11 14:27N 40°29' E 017°13'0 0.0
2017-May-11 13:27N 40°29' E 017°13'0 0.0
2017-May-11 12:57N 40°29' E 017°13'0 0.0
2017-May-11 12:30N 40°29' E 017°13'0 0.0
2017-May-11 12:00N 40°29' E 017°13'0 0.0
2017-May-11 11:30N 40°29' E 017°13'0 0.0
2017-May-11 11:00N 40°29' E 017°13'0 0.0
2017-May-11 10:27N 40°29' E 017°13'0 0.0
2017-May-11 09:57N 40°29' E 017°13'0 0.0
2017-May-11 09:27N 40°29' E 017°13'0 0.0
2017-May-11 07:00N 40°29' E 017°13'0 0.0
2017-May-11 06:26N 40°29' E 017°13'0 0.0
2017-May-11 05:59N 40°29' E 017°13'0 0.0
2017-May-11 05:23N 40°29' E 017°13'0 0.0
2017-May-11 04:59N 40°29' E 017°13'0 0.0
2017-May-11 04:29N 40°29' E 017°13'0 0.0
2017-May-11 03:59N 40°29' E 017°13'0 0.0
2017-May-11 03:29N 40°29' E 017°13'0 0.0
2017-May-11 02:59N 40°29' E 017°13'0 0.0
2017-May-11 02:29N 40°29' E 017°13'0 0.0
2017-May-11 01:56N 40°29' E 017°13'0 0.0
2017-May-11 01:29N 40°29' E 017°13'0 0.0
2017-May-11 00:59N 40°29' E 017°13'0 0.0
2017-May-11 00:29N 40°29' E 017°13'0 0.0
2017-May-10 23:59N 40°29' E 017°13'0 0.0
2017-May-10 23:29N 40°29' E 017°13'0 0.0
2017-May-10 22:56N 40°29' E 017°13'0 0.0
2017-May-10 22:26N 40°29' E 017°13'0 0.0
2017-May-10 21:56N 40°29' E 017°13'0 0.0
2017-May-10 21:29N 40°29' E 017°13'0 0.0
2017-May-10 20:59N 40°29' E 017°13'0 0.0
2017-May-10 20:29N 40°29' E 017°13'0 0.0
2017-May-10 19:56N 40°29' E 017°13'0 0.0
2017-May-10 19:23N 40°29' E 017°13'0 0.0
2017-May-10 18:59N 40°29' E 017°13'0 0.0
2017-May-10 18:23N 40°29' E 017°13'0 0.0
2017-May-10 17:59N 40°29' E 017°13'0 0.0
2017-May-10 17:29N 40°29' E 017°13'0 0.0
2017-May-10 16:59N 40°29' E 017°13'0 0.0
2017-May-10 16:26N 40°29' E 017°13'0 0.0
2017-May-10 15:59N 40°29' E 017°13'0 0.0
2017-May-10 15:29N 40°29' E 017°13'0 0.0
2017-May-10 14:56N 40°29' E 017°13'0 0.0
2017-May-10 13:59N 40°29' E 017°13'0 0.0
2017-May-10 13:29N 40°29' E 017°13'0 0.0
2017-May-10 12:59N 40°29' E 017°13'0 0.0
2017-May-10 12:29N 40°29' E 017°13'0 0.0
2017-May-10 11:50N 40°29' E 017°13'0 0.0
2017-May-10 11:26N 40°29' E 017°13'0 0.0
2017-May-10 10:59N 40°29' E 017°13'0 0.0
2017-May-10 10:26N 40°29' E 017°13'0 0.0
2017-May-10 09:53N 40°29' E 017°13'0 0.0
2017-May-10 09:29N 40°29' E 017°13'0 0.0
2017-May-10 08:59N 40°29' E 017°13'0 0.0
2017-May-10 08:29N 40°29' E 017°13'0 0.0
2017-May-10 08:00N 40°29' E 017°13'1 2.9
2017-May-10 07:30N 40°27' E 017°13'5 9.2
2017-May-10 07:00N 40°24' E 017°09'4 8.4
2017-May-10 06:30N 40°21' E 017°12'4 8.7
2017-May-10 06:00N 40°18' E 017°16'4 8.8
2017-May-10 05:30N 40°15' E 017°20'4 8.9
2017-May-10 05:00N 40°12' E 017°24'5 8.9
2017-May-10 04:29N 40°08' E 017°28'4 8.9
2017-May-10 04:00N 40°05' E 017°32'4 8.8
2017-May-10 03:30N 40°02' E 017°36'  
Track history (hours):
 
Tides and Currents Weather Stations Pressure Air Temp Water Temp Dewpoint Dewpoint Depression Visibility Wind Speed Wind Dir Waves Ship Positions

Forester

Last reported at 2017-May-17 17:01 UTC. Time now 2017-May-26 09:33 UTC.
Position N 37°34' E 024°02'.
Warning: this ship's position is 8 days out of date.

Length 100 m; draft 4.9 m.

Type: Ship. MMSI: 211233870.

Date/timePositionNaut miles runAvg speedWind from/ knotsBaromVisibWave heightAir tempDewpointWater temp
2017-May-17 17:01N 37°34' E 024°02'0 9.1
2017-May-17 17:00N 37°34' E 024°02'  
2017-May-14 16:18N 37°30' E 024°01'311.1
2017-May-14 16:00N 37°27' E 023°60'611.2
2017-May-14 15:30N 37°22' E 023°56'611.1
2017-May-14 15:00N 37°18' E 023°53'611.1
2017-May-14 14:30N 37°13' E 023°49'2011.1
2017-May-14 12:44N 36°56' E 023°37'311 9.2
2017-May-13 02:55N 39°40' E 018°00'510.1
2017-May-13 02:26N 39°43' E 017°56'5 9.8
2017-May-13 01:57N 39°47' E 017°52'4 9.8
2017-May-13 01:30N 39°50' E 017°48'5 9.7
2017-May-13 01:00N 39°54' E 017°44'6 9.9
2017-May-13 00:26N 39°58' E 017°39'410.1
2017-May-12 23:59N 40°01' E 017°35'510.2
2017-May-12 23:29N 40°05' E 017°30'510.2
2017-May-12 22:59N 40°09' E 017°25'5 9.7
2017-May-12 22:26N 40°12' E 017°21'4 9.2
2017-May-12 21:58N 40°16' E 017°17'4 8.1
2017-May-12 21:30N 40°18' E 017°14'4 7.4
2017-May-12 21:00N 40°21' E 017°10'4 7.2
2017-May-12 20:30N 40°24' E 017°08'3 6.8
2017-May-12 20:00N 40°26' E 017°11'3 4.5
2017-May-12 19:25N 40°29' E 017°13'0 0.0
2017-May-12 19:01N 40°29' E 017°13'0 0.0
2017-May-12 18:16N 40°29' E 017°13'0 0.0
2017-May-12 18:00N 40°29' E 017°13'0 0.0
2017-May-12 17:30N 40°29' E 017°13'0 0.0
2017-May-12 17:00N 40°29' E 017°13'0 0.0
2017-May-12 16:27N 40°29' E 017°13'0 0.0
2017-May-12 15:57N 40°29' E 017°13'0 0.0
2017-May-12 15:30N 40°29' E 017°13'0 0.0
2017-May-12 14:57N 40°29' E 017°13'0 0.0
2017-May-12 14:30N 40°29' E 017°13'0 0.0
2017-May-12 13:30N 40°29' E 017°13'0 0.0
2017-May-12 13:00N 40°29' E 017°13'0 0.0
2017-May-12 12:30N 40°29' E 017°13'0 0.0
2017-May-12 11:57N 40°29' E 017°13'0 0.0
2017-May-12 11:30N 40°29' E 017°13'0 0.0
2017-May-12 11:00N 40°29' E 017°13'0 0.0
2017-May-12 10:27N 40°29' E 017°13'0 0.0
2017-May-12 09:51N 40°29' E 017°13'0 0.0
2017-May-12 09:30N 40°29' E 017°13'0 0.0
2017-May-12 09:00N 40°29' E 017°13'0 0.0
2017-May-12 08:30N 40°29' E 017°13'0 0.0
2017-May-12 08:00N 40°29' E 017°13'0 0.0
2017-May-12 07:27N 40°29' E 017°13'0 0.0
2017-May-12 07:00N 40°29' E 017°13'0 0.0
2017-May-12 06:30N 40°29' E 017°13'0 0.0
2017-May-12 06:00N 40°29' E 017°13'0 0.0
2017-May-12 05:24N 40°29' E 017°13'0 0.0
2017-May-12 04:57N 40°29' E 017°13'0 0.0
2017-May-12 04:30N 40°29' E 017°13'0 0.0
2017-May-12 04:00N 40°29' E 017°13'0 0.0
2017-May-12 03:30N 40°29' E 017°13'0 0.0
2017-May-12 02:57N 40°29' E 017°13'0 0.0
2017-May-12 02:30N 40°29' E 017°13'0 0.0
2017-May-12 02:00N 40°29' E 017°13'0 0.0
2017-May-12 01:27N 40°29' E 017°13'0 0.0
2017-May-12 00:57N 40°29' E 017°13'0 0.0
2017-May-12 00:30N 40°29' E 017°13'0 0.0
2017-May-12 00:00N 40°29' E 017°13'0 0.0
2017-May-11 23:24N 40°29' E 017°13'0 0.0
2017-May-11 23:00N 40°29' E 017°13'0 0.0
2017-May-11 22:27N 40°29' E 017°13'0 0.0
2017-May-11 21:57N 40°29' E 017°13'0 0.0
2017-May-11 21:30N 40°29' E 017°13'0 0.0
2017-May-11 21:00N 40°29' E 017°13'0 0.0
2017-May-11 20:30N 40°29' E 017°13'0 0.0
2017-May-11 19:54N 40°29' E 017°13'0 0.0
2017-May-11 19:30N 40°29' E 017°13'0 0.0
2017-May-11 19:00N 40°29' E 017°13'0 0.0
2017-May-11 18:24N 40°29' E 017°13'0 0.0
2017-May-11 17:57N 40°29' E 017°13'0 0.0
2017-May-11 17:30N 40°29' E 017°13'0 0.0
2017-May-11 17:00N 40°29' E 017°13'0 0.0
2017-May-11 16:27N 40°29' E 017°13'0 0.0
2017-May-11 15:57N 40°29' E 017°13'0 0.0
2017-May-11 15:27N 40°29' E 017°13'0 0.0
2017-May-11 14:57N 40°29' E 017°13'0 0.0
2017-May-11 14:27N 40°29' E 017°13'0 0.0
2017-May-11 13:27N 40°29' E 017°13'0 0.0
2017-May-11 12:57N 40°29' E 017°13'0 0.0
2017-May-11 12:30N 40°29' E 017°13'0 0.0
2017-May-11 12:00N 40°29' E 017°13'0 0.0
2017-May-11 11:30N 40°29' E 017°13'0 0.0
2017-May-11 11:00N 40°29' E 017°13'0 0.0
2017-May-11 10:27N 40°29' E 017°13'0 0.0
2017-May-11 09:57N 40°29' E 017°13'0 0.0
2017-May-11 09:27N 40°29' E 017°13'0 0.0
2017-May-11 07:00N 40°29' E 017°13'0 0.0
2017-May-11 06:26N 40°29' E 017°13'0 0.0
2017-May-11 05:59N 40°29' E 017°13'0 0.0
2017-May-11 05:23N 40°29' E 017°13'0 0.0
2017-May-11 04:59N 40°29' E 017°13'0 0.0
2017-May-11 04:29N 40°29' E 017°13'0 0.0
2017-May-11 03:59N 40°29' E 017°13'0 0.0
2017-May-11 03:29N 40°29' E 017°13'0 0.0
2017-May-11 02:59N 40°29' E 017°13'0 0.0
2017-May-11 02:29N 40°29' E 017°13'0 0.0
2017-May-11 01:56N 40°29' E 017°13'0 0.0
2017-May-11 01:29N 40°29' E 017°13'0 0.0
2017-May-11 00:59N 40°29' E 017°13'0 0.0
2017-May-11 00:29N 40°29' E 017°13'0 0.0
2017-May-10 23:59N 40°29' E 017°13'0 0.0
2017-May-10 23:29N 40°29' E 017°13'0 0.0
2017-May-10 22:56N 40°29' E 017°13'0 0.0
2017-May-10 22:26N 40°29' E 017°13'0 0.0
2017-May-10 21:56N 40°29' E 017°13'0 0.0
2017-May-10 21:29N 40°29' E 017°13'0 0.0
2017-May-10 20:59N 40°29' E 017°13'0 0.0
2017-May-10 20:29N 40°29' E 017°13'0 0.0
2017-May-10 19:56N 40°29' E 017°13'0 0.0
2017-May-10 19:23N 40°29' E 017°13'0 0.0
2017-May-10 18:59N 40°29' E 017°13'0 0.0
2017-May-10 18:23N 40°29' E 017°13'0 0.0
2017-May-10 17:59N 40°29' E 017°13'0 0.0
2017-May-10 17:29N 40°29' E 017°13'0 0.0
2017-May-10 16:59N 40°29' E 017°13'0 0.0
2017-May-10 16:26N 40°29' E 017°13'0 0.0
2017-May-10 15:59N 40°29' E 017°13'0 0.0
2017-May-10 15:29N 40°29' E 017°13'0 0.0
2017-May-10 14:56N 40°29' E 017°13'0 0.0
2017-May-10 13:59N 40°29' E 017°13'0 0.0
2017-May-10 13:29N 40°29' E 017°13'0 0.0
2017-May-10 12:59N 40°29' E 017°13'0 0.0
2017-May-10 12:29N 40°29' E 017°13'0 0.0
2017-May-10 11:50N 40°29' E 017°13'0 0.0
2017-May-10 11:26N 40°29' E 017°13'0 0.0
2017-May-10 10:59N 40°29' E 017°13'0 0.0
2017-May-10 10:26N 40°29' E 017°13'0 0.0
2017-May-10 09:53N 40°29' E 017°13'0 0.0
2017-May-10 09:29N 40°29' E 017°13'0 0.0
2017-May-10 08:59N 40°29' E 017°13'0 0.0
2017-May-10 08:29N 40°29' E 017°13'0 0.0
2017-May-10 08:00N 40°29' E 017°13'1 2.9
2017-May-10 07:30N 40°27' E 017°13'5 9.2
2017-May-10 07:00N 40°24' E 017°09'4 8.4
2017-May-10 06:30N 40°21' E 017°12'4 8.7
2017-May-10 06:00N 40°18' E 017°16'4 8.8
2017-May-10 05:30N 40°15' E 017°20'4 8.9
2017-May-10 05:00N 40°12' E 017°24'5 8.9
2017-May-10 04:29N 40°08' E 017°28'4 8.9
2017-May-10 04:00N 40°05' E 017°32'4 8.8
2017-May-10 03:30N 40°02' E 017°36'  

Dump ship's entire track history